Kezdőlap
METAR-TAF:

METAR-TAF

Repülőterek :

St. George, Alaszka, Amerikai Egyesült Államok

földrajzi szélesség: 56-34-43N, földrajzi hosszúság: 169-39-41W, magasság: 38 m

Jelenlegi meteorológiai megfigyelések

A jelentés 1 órával és 4 perccel ezelõtt készült, 21:22 UTC
Északkeleti szél 7 kt
Hőmérséklet 2°C
Páratartalom 100%
Légköri nyomás 1004 hPa
Látótávolság: 1.6 km
Párásság

METAR: PAPB 292122Z AUTO 04007KT 1SM BR VV002 02/02 A2966 RMK AO2 T00170017 TSNO $

Idő: 14:26 (22:26 UTC)


TAF: hiányzik

Meteorológiai megfigyelések és előrejelzések több, mint 4000 repülőtéren (METAR és TAF jelentéseket).

A térképen piros és sárga pontok jelzik az elérhető meteorológiai állomásokat.

Mozgassa az egeret a pont fölött, hogy megjelenjen az állomás neve.

Azután kattintson az időjárási megfigyelések és előrejelzések megtekintéséhez.

A térkép megváltoztatása: kattintson a fekete keresztel jelölt zöld gombra ráközelítéshez, a vonallal jelölt zöld gombra távolításhoz, vagy a zöld nyilakra a szomszédos térképek eléréséhez.


METAR-TAF: